sensor_id;sensor_type;location;lat;lon;timestamp;P1;durP1;ratioP1;P2;durP2;ratioP2
21987;SDS011;11158;53.404;-1.510;2022-07-15T00:02:24;2.50;;;1.00;;
21987;SDS011;11158;53.404;-1.510;2022-07-15T00:04:50;3.20;;;1.30;;
21987;SDS011;11158;53.404;-1.510;2022-07-15T00:07:15;2.17;;;1.10;;
21987;SDS011;11158;53.404;-1.510;2022-07-15T00:09:42;2.60;;;0.98;;
21987;SDS011;11158;53.404;-1.510;2022-07-15T00:12:26;3.70;;;1.23;;
21987;SDS011;11158;53.404;-1.510;2022-07-15T00:14:52;1.60;;;0.88;;
21987;SDS011;11158;53.404;-1.510;2022-07-15T00:17:18;5.03;;;1.10;;
21987;SDS011;11158;53.404;-1.510;2022-07-15T00:19:47;3.45;;;1.15;;
21987;SDS011;11158;53.404;-1.510;2022-07-15T00:22:13;3.33;;;1.08;;
21987;SDS011;11158;53.404;-1.510;2022-07-15T00:24:39;3.05;;;1.40;;
21987;SDS011;11158;53.404;-1.510;2022-07-15T00:27:04;3.65;;;1.35;;
21987;SDS011;11158;53.404;-1.510;2022-07-15T00:29:30;4.57;;;1.10;;
21987;SDS011;11158;53.404;-1.510;2022-07-15T00:31:59;3.88;;;1.00;;
21987;SDS011;11158;53.404;-1.510;2022-07-15T00:34:25;6.43;;;1.38;;
21987;SDS011;11158;53.404;-1.510;2022-07-15T00:36:50;3.17;;;1.20;;
21987;SDS011;11158;53.404;-1.510;2022-07-15T00:39:16;3.45;;;1.23;;
21987;SDS011;11158;53.404;-1.510;2022-07-15T00:41:43;2.70;;;1.10;;
21987;SDS011;11158;53.404;-1.510;2022-07-15T00:44:09;2.72;;;1.20;;
21987;SDS011;11158;53.404;-1.510;2022-07-15T00:46:36;2.92;;;1.17;;
21987;SDS011;11158;53.404;-1.510;2022-07-15T00:49:02;3.38;;;1.13;;
21987;SDS011;11158;53.404;-1.510;2022-07-15T00:51:41;7.10;;;1.48;;
21987;SDS011;11158;53.404;-1.510;2022-07-15T00:54:16;4.03;;;1.45;;
21987;SDS011;11158;53.404;-1.510;2022-07-15T00:56:51;2.22;;;1.63;;
21987;SDS011;11158;53.404;-1.510;2022-07-15T00:59:21;4.28;;;1.33;;
21987;SDS011;11158;53.404;-1.510;2022-07-15T01:01:49;4.20;;;1.70;;
21987;SDS011;11158;53.404;-1.510;2022-07-15T01:04:17;7.00;;;1.60;;
21987;SDS011;11158;53.404;-1.510;2022-07-15T01:06:43;5.95;;;2.35;;
21987;SDS011;11158;53.404;-1.510;2022-07-15T01:09:09;3.55;;;1.58;;
21987;SDS011;11158;53.404;-1.510;2022-07-15T01:11:35;5.95;;;1.98;;
21987;SDS011;11158;53.404;-1.510;2022-07-15T01:14:03;3.75;;;1.60;;
21987;SDS011;11158;53.404;-1.510;2022-07-15T01:16:30;5.38;;;2.08;;
21987;SDS011;11158;53.404;-1.510;2022-07-15T01:18:56;4.82;;;1.50;;
21987;SDS011;11158;53.404;-1.510;2022-07-15T01:21:22;6.10;;;1.95;;
21987;SDS011;11158;53.404;-1.510;2022-07-15T01:23:48;6.07;;;1.60;;
21987;SDS011;11158;53.404;-1.510;2022-07-15T01:26:13;4.38;;;1.77;;
21987;SDS011;11158;53.404;-1.510;2022-07-15T01:28:40;4.95;;;2.17;;
21987;SDS011;11158;53.404;-1.510;2022-07-15T01:31:08;3.90;;;1.70;;
21987;SDS011;11158;53.404;-1.510;2022-07-15T01:33:34;5.40;;;1.77;;
21987;SDS011;11158;53.404;-1.510;2022-07-15T01:36:01;2.28;;;1.70;;
21987;SDS011;11158;53.404;-1.510;2022-07-15T01:38:27;4.03;;;2.00;;
21987;SDS011;11158;53.404;-1.510;2022-07-15T01:40:54;3.83;;;1.90;;
21987;SDS011;11158;53.404;-1.510;2022-07-15T01:43:20;6.40;;;1.95;;
21987;SDS011;11158;53.404;-1.510;2022-07-15T01:45:46;3.85;;;2.38;;
21987;SDS011;11158;53.404;-1.510;2022-07-15T01:48:12;3.35;;;2.10;;
21987;SDS011;11158;53.404;-1.510;2022-07-15T01:50:57;8.90;;;2.22;;
21987;SDS011;11158;53.404;-1.510;2022-07-15T01:53:25;4.70;;;2.22;;
21987;SDS011;11158;53.404;-1.510;2022-07-15T01:55:53;4.13;;;1.80;;
21987;SDS011;11158;53.404;-1.510;2022-07-15T01:58:19;4.88;;;2.05;;
21987;SDS011;11158;53.404;-1.510;2022-07-15T02:00:45;4.35;;;1.80;;
21987;SDS011;11158;53.404;-1.510;2022-07-15T02:03:12;4.07;;;1.75;;
21987;SDS011;11158;53.404;-1.510;2022-07-15T02:05:38;4.72;;;1.92;;
21987;SDS011;11158;53.404;-1.510;2022-07-15T02:08:04;4.40;;;1.88;;
21987;SDS011;11158;53.404;-1.510;2022-07-15T02:10:30;4.35;;;1.70;;
21987;SDS011;11158;53.404;-1.510;2022-07-15T02:13:11;5.28;;;1.92;;
21987;SDS011;11158;53.404;-1.510;2022-07-15T02:15:39;2.50;;;1.55;;
21987;SDS011;11158;53.404;-1.510;2022-07-15T02:18:06;3.83;;;2.00;;
21987;SDS011;11158;53.404;-1.510;2022-07-15T02:20:32;6.20;;;1.85;;
21987;SDS011;11158;53.404;-1.510;2022-07-15T02:22:59;3.97;;;1.55;;
21987;SDS011;11158;53.404;-1.510;2022-07-15T02:25:27;3.20;;;1.83;;
21987;SDS011;11158;53.404;-1.510;2022-07-15T02:27:58;4.70;;;1.88;;
21987;SDS011;11158;53.404;-1.510;2022-07-15T02:30:25;3.92;;;2.00;;
21987;SDS011;11158;53.404;-1.510;2022-07-15T02:32:52;4.07;;;1.77;;
21987;SDS011;11158;53.404;-1.510;2022-07-15T02:35:18;6.78;;;2.33;;
21987;SDS011;11158;53.404;-1.510;2022-07-15T02:37:45;2.28;;;1.98;;
21987;SDS011;11158;53.404;-1.510;2022-07-15T02:40:11;4.57;;;2.00;;
21987;SDS011;11158;53.404;-1.510;2022-07-15T02:42:37;4.95;;;1.85;;
21987;SDS011;11158;53.404;-1.510;2022-07-15T02:45:03;4.05;;;1.67;;
21987;SDS011;11158;53.404;-1.510;2022-07-15T02:47:31;3.75;;;2.05;;
21987;SDS011;11158;53.404;-1.510;2022-07-15T02:49:57;3.97;;;1.63;;
21987;SDS011;11158;53.404;-1.510;2022-07-15T02:52:22;3.22;;;1.60;;
21987;SDS011;11158;53.404;-1.510;2022-07-15T02:54:48;2.88;;;1.75;;
21987;SDS011;11158;53.404;-1.510;2022-07-15T02:57:14;6.13;;;1.98;;
21987;SDS011;11158;53.404;-1.510;2022-07-15T02:59:40;5.70;;;1.80;;
21987;SDS011;11158;53.404;-1.510;2022-07-15T03:02:06;4.93;;;1.63;;
21987;SDS011;11158;53.404;-1.510;2022-07-15T03:04:31;5.70;;;1.65;;
21987;SDS011;11158;53.404;-1.510;2022-07-15T03:06:57;4.18;;;1.90;;
21987;SDS011;11158;53.404;-1.510;2022-07-15T03:09:23;5.90;;;1.77;;
21987;SDS011;11158;53.404;-1.510;2022-07-15T03:11:49;3.33;;;1.92;;
21987;SDS011;11158;53.404;-1.510;2022-07-15T03:14:15;3.95;;;1.75;;
21987;SDS011;11158;53.404;-1.510;2022-07-15T03:16:41;5.13;;;1.70;;
21987;SDS011;11158;53.404;-1.510;2022-07-15T03:19:07;3.80;;;1.85;;
21987;SDS011;11158;53.404;-1.510;2022-07-15T03:21:34;5.57;;;1.75;;
21987;SDS011;11158;53.404;-1.510;2022-07-15T03:24:00;3.55;;;1.90;;
21987;SDS011;11158;53.404;-1.510;2022-07-15T03:26:25;7.85;;;1.77;;
21987;SDS011;11158;53.404;-1.510;2022-07-15T03:28:51;4.97;;;1.75;;
21987;SDS011;11158;53.404;-1.510;2022-07-15T03:31:17;4.18;;;1.58;;
21987;SDS011;11158;53.404;-1.510;2022-07-15T03:33:42;4.60;;;1.70;;
21987;SDS011;11158;53.404;-1.510;2022-07-15T03:36:08;4.25;;;1.60;;
21987;SDS011;11158;53.404;-1.510;2022-07-15T03:38:34;2.28;;;1.75;;
21987;SDS011;11158;53.404;-1.510;2022-07-15T03:40:59;4.18;;;1.83;;
21987;SDS011;11158;53.404;-1.510;2022-07-15T03:43:25;4.30;;;1.60;;
21987;SDS011;11158;53.404;-1.510;2022-07-15T03:45:54;4.53;;;1.60;;
21987;SDS011;11158;53.404;-1.510;2022-07-15T03:48:21;6.93;;;1.85;;
21987;SDS011;11158;53.404;-1.510;2022-07-15T03:50:47;3.90;;;1.52;;
21987;SDS011;11158;53.404;-1.510;2022-07-15T03:53:14;3.50;;;1.42;;
21987;SDS011;11158;53.404;-1.510;2022-07-15T03:55:39;5.82;;;1.65;;
21987;SDS011;11158;53.404;-1.510;2022-07-15T03:58:08;5.97;;;1.50;;
21987;SDS011;11158;53.404;-1.510;2022-07-15T04:00:35;4.93;;;1.40;;
21987;SDS011;11158;53.404;-1.510;2022-07-15T04:03:01;6.13;;;1.48;;
21987;SDS011;11158;53.404;-1.510;2022-07-15T04:05:28;2.53;;;1.17;;
21987;SDS011;11158;53.404;-1.510;2022-07-15T04:07:58;4.00;;;1.35;;
21987;SDS011;11158;53.404;-1.510;2022-07-15T04:10:24;4.65;;;1.38;;
21987;SDS011;11158;53.404;-1.510;2022-07-15T04:12:49;4.82;;;1.48;;
21987;SDS011;11158;53.404;-1.510;2022-07-15T04:15:15;4.70;;;1.67;;
21987;SDS011;11158;53.404;-1.510;2022-07-15T04:17:40;6.93;;;1.33;;
21987;SDS011;11158;53.404;-1.510;2022-07-15T04:20:07;3.90;;;1.33;;
21987;SDS011;11158;53.404;-1.510;2022-07-15T04:22:43;5.60;;;1.40;;
21987;SDS011;11158;53.404;-1.510;2022-07-15T04:25:10;3.03;;;1.15;;
21987;SDS011;11158;53.404;-1.510;2022-07-15T04:27:39;4.07;;;1.40;;
21987;SDS011;11158;53.404;-1.510;2022-07-15T04:30:05;2.63;;;1.20;;
21987;SDS011;11158;53.404;-1.510;2022-07-15T04:32:31;6.15;;;1.35;;
21987;SDS011;11158;53.404;-1.510;2022-07-15T04:34:58;2.60;;;1.17;;
21987;SDS011;11158;53.404;-1.510;2022-07-15T04:37:24;2.35;;;1.38;;
21987;SDS011;11158;53.404;-1.510;2022-07-15T04:39:49;4.28;;;1.60;;
21987;SDS011;11158;53.404;-1.510;2022-07-15T04:42:16;1.98;;;1.00;;
21987;SDS011;11158;53.404;-1.510;2022-07-15T04:44:42;4.03;;;1.40;;
21987;SDS011;11158;53.404;-1.510;2022-07-15T04:47:08;1.77;;;0.93;;
21987;SDS011;11158;53.404;-1.510;2022-07-15T04:49:33;4.05;;;1.27;;
21987;SDS011;11158;53.404;-1.510;2022-07-15T04:52:17;2.17;;;1.00;;
21987;SDS011;11158;53.404;-1.510;2022-07-15T04:54:43;3.70;;;1.30;;
21987;SDS011;11158;53.404;-1.510;2022-07-15T04:57:09;4.28;;;1.17;;
21987;SDS011;11158;53.404;-1.510;2022-07-15T04:59:35;7.22;;;1.42;;
21987;SDS011;11158;53.404;-1.510;2022-07-15T05:02:00;3.25;;;1.08;;
21987;SDS011;11158;53.404;-1.510;2022-07-15T05:04:26;3.55;;;1.45;;
21987;SDS011;11158;53.404;-1.510;2022-07-15T05:06:52;5.63;;;1.02;;
21987;SDS011;11158;53.404;-1.510;2022-07-15T05:09:17;4.18;;;1.25;;
21987;SDS011;11158;53.404;-1.510;2022-07-15T05:11:43;3.85;;;1.52;;
21987;SDS011;11158;53.404;-1.510;2022-07-15T05:14:09;2.58;;;1.05;;
21987;SDS011;11158;53.404;-1.510;2022-07-15T05:16:35;4.72;;;1.30;;
21987;SDS011;11158;53.404;-1.510;2022-07-15T05:19:01;3.88;;;1.13;;
21987;SDS011;11158;53.404;-1.510;2022-07-15T05:21:27;4.95;;;1.20;;
21987;SDS011;11158;53.404;-1.510;2022-07-15T05:23:53;7.50;;;1.63;;
21987;SDS011;11158;53.404;-1.510;2022-07-15T05:26:18;4.65;;;1.38;;
21987;SDS011;11158;53.404;-1.510;2022-07-15T05:28:44;3.50;;;1.00;;
21987;SDS011;11158;53.404;-1.510;2022-07-15T05:31:10;5.57;;;1.25;;
21987;SDS011;11158;53.404;-1.510;2022-07-15T05:33:35;2.80;;;1.00;;
21987;SDS011;11158;53.404;-1.510;2022-07-15T05:36:01;1.90;;;1.30;;
21987;SDS011;11158;53.404;-1.510;2022-07-15T05:38:27;5.13;;;1.15;;
21987;SDS011;11158;53.404;-1.510;2022-07-15T05:40:53;3.97;;;1.20;;
21987;SDS011;11158;53.404;-1.510;2022-07-15T05:43:19;3.50;;;1.42;;
21987;SDS011;11158;53.404;-1.510;2022-07-15T05:45:45;5.28;;;1.30;;
21987;SDS011;11158;53.404;-1.510;2022-07-15T05:48:11;2.13;;;1.20;;
21987;SDS011;11158;53.404;-1.510;2022-07-15T05:50:37;5.28;;;1.50;;
21987;SDS011;11158;53.404;-1.510;2022-07-15T05:53:02;2.88;;;1.13;;
21987;SDS011;11158;53.404;-1.510;2022-07-15T05:55:28;3.70;;;1.13;;
21987;SDS011;11158;53.404;-1.510;2022-07-15T05:57:54;5.88;;;1.40;;
21987;SDS011;11158;53.404;-1.510;2022-07-15T06:00:20;5.88;;;1.38;;
21987;SDS011;11158;53.404;-1.510;2022-07-15T06:02:46;5.18;;;1.23;;
21987;SDS011;11158;53.404;-1.510;2022-07-15T06:05:11;6.78;;;1.27;;
21987;SDS011;11158;53.404;-1.510;2022-07-15T06:07:37;5.18;;;1.20;;
21987;SDS011;11158;53.404;-1.510;2022-07-15T06:10:03;3.63;;;1.30;;
21987;SDS011;11158;53.404;-1.510;2022-07-15T06:12:30;4.85;;;1.20;;
21987;SDS011;11158;53.404;-1.510;2022-07-15T06:14:55;3.95;;;1.38;;
21987;SDS011;11158;53.404;-1.510;2022-07-15T06:17:21;4.15;;;1.30;;
21987;SDS011;11158;53.404;-1.510;2022-07-15T06:19:47;4.45;;;1.30;;
21987;SDS011;11158;53.404;-1.510;2022-07-15T06:22:13;4.05;;;1.30;;
21987;SDS011;11158;53.404;-1.510;2022-07-15T06:24:39;2.45;;;1.33;;
21987;SDS011;11158;53.404;-1.510;2022-07-15T06:27:05;4.35;;;1.45;;
21987;SDS011;11158;53.404;-1.510;2022-07-15T06:29:30;3.92;;;1.33;;
21987;SDS011;11158;53.404;-1.510;2022-07-15T06:31:57;3.13;;;1.08;;
21987;SDS011;11158;53.404;-1.510;2022-07-15T06:34:24;6.65;;;1.40;;
21987;SDS011;11158;53.404;-1.510;2022-07-15T06:36:50;2.88;;;1.08;;
21987;SDS011;11158;53.404;-1.510;2022-07-15T06:39:16;4.82;;;1.45;;
21987;SDS011;11158;53.404;-1.510;2022-07-15T06:41:42;3.50;;;1.38;;
21987;SDS011;11158;53.404;-1.510;2022-07-15T06:44:08;2.97;;;0.93;;
21987;SDS011;11158;53.404;-1.510;2022-07-15T06:46:34;2.83;;;0.98;;
21987;SDS011;11158;53.404;-1.510;2022-07-15T06:49:01;4.53;;;1.33;;
21987;SDS011;11158;53.404;-1.510;2022-07-15T06:51:27;2.67;;;1.00;;
21987;SDS011;11158;53.404;-1.510;2022-07-15T06:53:52;5.40;;;1.23;;
21987;SDS011;11158;53.404;-1.510;2022-07-15T06:56:18;4.85;;;1.33;;
21987;SDS011;11158;53.404;-1.510;2022-07-15T06:58:44;4.30;;;1.50;;
21987;SDS011;11158;53.404;-1.510;2022-07-15T07:01:10;2.55;;;0.90;;
21987;SDS011;11158;53.404;-1.510;2022-07-15T07:03:36;5.20;;;1.23;;
21987;SDS011;11158;53.404;-1.510;2022-07-15T07:06:02;4.40;;;1.15;;
21987;SDS011;11158;53.404;-1.510;2022-07-15T07:08:31;4.25;;;1.15;;
21987;SDS011;11158;53.404;-1.510;2022-07-15T07:10:56;5.95;;;1.38;;
21987;SDS011;11158;53.404;-1.510;2022-07-15T07:13:22;4.50;;;1.20;;
21987;SDS011;11158;53.404;-1.510;2022-07-15T07:15:49;1.90;;;0.93;;
21987;SDS011;11158;53.404;-1.510;2022-07-15T07:18:15;1.98;;;0.85;;
21987;SDS011;11158;53.404;-1.510;2022-07-15T07:20:40;3.90;;;1.13;;
21987;SDS011;11158;53.404;-1.510;2022-07-15T07:23:09;5.22;;;1.20;;
21987;SDS011;11158;53.404;-1.510;2022-07-15T07:25:35;8.43;;;1.15;;
21987;SDS011;11158;53.404;-1.510;2022-07-15T07:28:01;3.47;;;1.20;;
21987;SDS011;11158;53.404;-1.510;2022-07-15T07:30:29;3.70;;;1.02;;
21987;SDS011;11158;53.404;-1.510;2022-07-15T07:32:55;3.03;;;1.10;;
21987;SDS011;11158;53.404;-1.510;2022-07-15T07:35:21;4.20;;;1.10;;
21987;SDS011;11158;53.404;-1.510;2022-07-15T07:37:47;7.07;;;1.27;;
21987;SDS011;11158;53.404;-1.510;2022-07-15T07:40:12;3.05;;;1.20;;
21987;SDS011;11158;53.404;-1.510;2022-07-15T07:42:39;2.67;;;0.98;;
21987;SDS011;11158;53.404;-1.510;2022-07-15T07:45:05;2.70;;;1.17;;
21987;SDS011;11158;53.404;-1.510;2022-07-15T07:47:34;3.03;;;1.20;;
21987;SDS011;11158;53.404;-1.510;2022-07-15T07:50:06;2.05;;;0.90;;
21987;SDS011;11158;53.404;-1.510;2022-07-15T07:52:33;3.92;;;1.45;;
21987;SDS011;11158;53.404;-1.510;2022-07-15T07:55:00;4.20;;;1.15;;
21987;SDS011;11158;53.404;-1.510;2022-07-15T07:57:26;7.32;;;1.20;;
21987;SDS011;11158;53.404;-1.510;2022-07-15T07:59:51;3.40;;;1.05;;
21987;SDS011;11158;53.404;-1.510;2022-07-15T08:02:18;3.38;;;1.30;;
21987;SDS011;11158;53.404;-1.510;2022-07-15T08:04:44;8.10;;;1.48;;
21987;SDS011;11158;53.404;-1.510;2022-07-15T08:07:09;4.30;;;1.10;;
21987;SDS011;11158;53.404;-1.510;2022-07-15T08:09:36;3.00;;;1.38;;
21987;SDS011;11158;53.404;-1.510;2022-07-15T08:12:02;5.60;;;1.45;;
21987;SDS011;11158;53.404;-1.510;2022-07-15T08:14:28;4.15;;;1.42;;
21987;SDS011;11158;53.404;-1.510;2022-07-15T08:16:54;4.82;;;2.38;;
21987;SDS011;11158;53.404;-1.510;2022-07-15T08:19:20;6.53;;;1.60;;
21987;SDS011;11158;53.404;-1.510;2022-07-15T08:21:46;4.95;;;1.67;;
21987;SDS011;11158;53.404;-1.510;2022-07-15T08:24:12;5.78;;;1.48;;
21987;SDS011;11158;53.404;-1.510;2022-07-15T08:26:38;5.28;;;1.90;;
21987;SDS011;11158;53.404;-1.510;2022-07-15T08:29:05;6.05;;;1.58;;
21987;SDS011;11158;53.404;-1.510;2022-07-15T08:31:32;7.82;;;1.85;;
21987;SDS011;11158;53.404;-1.510;2022-07-15T08:33:58;3.10;;;1.80;;
21987;SDS011;11158;53.404;-1.510;2022-07-15T08:36:23;6.07;;;1.85;;
21987;SDS011;11158;53.404;-1.510;2022-07-15T08:38:49;3.50;;;1.90;;
21987;SDS011;11158;53.404;-1.510;2022-07-15T08:41:15;4.63;;;1.90;;
21987;SDS011;11158;53.404;-1.510;2022-07-15T08:43:41;4.63;;;1.90;;
21987;SDS011;11158;53.404;-1.510;2022-07-15T08:46:07;4.13;;;1.70;;
21987;SDS011;11158;53.404;-1.510;2022-07-15T08:48:35;3.88;;;1.48;;
21987;SDS011;11158;53.404;-1.510;2022-07-15T08:51:03;6.43;;;1.98;;
21987;SDS011;11158;53.404;-1.510;2022-07-15T08:53:31;5.82;;;2.00;;
21987;SDS011;11158;53.404;-1.510;2022-07-15T08:56:00;3.50;;;1.73;;
21987;SDS011;11158;53.404;-1.510;2022-07-15T08:58:28;3.25;;;1.42;;
21987;SDS011;11158;53.404;-1.510;2022-07-15T09:00:54;4.15;;;1.52;;
21987;SDS011;11158;53.404;-1.510;2022-07-15T09:03:20;5.95;;;1.95;;
21987;SDS011;11158;53.404;-1.510;2022-07-15T09:05:45;3.10;;;1.60;;
21987;SDS011;11158;53.404;-1.510;2022-07-15T09:08:14;7.15;;;1.83;;
21987;SDS011;11158;53.404;-1.510;2022-07-15T09:10:51;3.63;;;1.55;;
21987;SDS011;11158;53.404;-1.510;2022-07-15T09:16:08;3.50;;;1.75;;
21987;SDS011;11158;53.404;-1.510;2022-07-15T09:18:44;4.15;;;1.90;;
21987;SDS011;11158;53.404;-1.510;2022-07-15T09:21:17;7.85;;;1.60;;
21987;SDS011;11158;53.404;-1.510;2022-07-15T09:23:46;3.72;;;1.42;;
21987;SDS011;11158;53.404;-1.510;2022-07-15T09:28:49;8.27;;;1.52;;
21987;SDS011;11158;53.404;-1.510;2022-07-15T09:31:29;4.72;;;1.60;;
21987;SDS011;11158;53.404;-1.510;2022-07-15T09:34:20;4.40;;;1.27;;
21987;SDS011;11158;53.404;-1.510;2022-07-15T09:36:48;5.40;;;1.67;;
21987;SDS011;11158;53.404;-1.510;2022-07-15T09:39:18;3.28;;;1.60;;
21987;SDS011;11158;53.404;-1.510;2022-07-15T09:41:44;6.93;;;1.50;;
21987;SDS011;11158;53.404;-1.510;2022-07-15T09:44:12;4.68;;;1.40;;
21987;SDS011;11158;53.404;-1.510;2022-07-15T09:46:46;5.50;;;1.60;;
21987;SDS011;11158;53.404;-1.510;2022-07-15T09:49:17;3.33;;;1.40;;
21987;SDS011;11158;53.404;-1.510;2022-07-15T09:52:02;17.00;;;2.42;;
21987;SDS011;11158;53.404;-1.510;2022-07-15T09:54:37;3.00;;;1.33;;
21987;SDS011;11158;53.404;-1.510;2022-07-15T09:57:05;4.22;;;1.58;;
21987;SDS011;11158;53.404;-1.510;2022-07-15T09:59:34;3.05;;;1.60;;
21987;SDS011;11158;53.404;-1.510;2022-07-15T10:02:00;4.45;;;1.48;;
21987;SDS011;11158;53.404;-1.510;2022-07-15T10:04:27;2.80;;;1.35;;
21987;SDS011;11158;53.404;-1.510;2022-07-15T10:06:55;4.63;;;1.50;;
21987;SDS011;11158;53.404;-1.510;2022-07-15T10:09:23;3.53;;;1.40;;
21987;SDS011;11158;53.404;-1.510;2022-07-15T10:11:50;3.60;;;1.40;;
21987;SDS011;11158;53.404;-1.510;2022-07-15T10:17:17;4.55;;;1.55;;
21987;SDS011;11158;53.404;-1.510;2022-07-15T10:23:13;1.80;;;1.13;;
21987;SDS011;11158;53.404;-1.510;2022-07-15T10:33:42;3.17;;;1.30;;
21987;SDS011;11158;53.404;-1.510;2022-07-15T10:36:09;7.57;;;1.40;;
21987;SDS011;11158;53.404;-1.510;2022-07-15T10:38:36;3.35;;;1.23;;
21987;SDS011;11158;53.404;-1.510;2022-07-15T10:43:38;4.35;;;1.50;;
21987;SDS011;11158;53.404;-1.510;2022-07-15T10:48:44;5.40;;;1.70;;
21987;SDS011;11158;53.404;-1.510;2022-07-15T10:51:12;5.32;;;1.55;;
21987;SDS011;11158;53.404;-1.510;2022-07-15T10:53:58;1.95;;;1.20;;
21987;SDS011;11158;53.404;-1.510;2022-07-15T10:56:37;3.75;;;1.30;;
21987;SDS011;11158;53.404;-1.510;2022-07-15T10:59:17;3.40;;;1.35;;
21987;SDS011;11158;53.404;-1.510;2022-07-15T11:02:10;5.38;;;1.40;;
21987;SDS011;11158;53.404;-1.510;2022-07-15T11:04:35;4.38;;;1.27;;
21987;SDS011;11158;53.404;-1.510;2022-07-15T11:12:15;5.68;;;1.50;;
21987;SDS011;11158;53.404;-1.510;2022-07-15T11:15:11;2.92;;;1.42;;
21987;SDS011;11158;53.404;-1.510;2022-07-15T11:17:40;3.03;;;1.33;;
21987;SDS011;11158;53.404;-1.510;2022-07-15T11:20:08;3.53;;;1.42;;
21987;SDS011;11158;53.404;-1.510;2022-07-15T11:22:37;4.05;;;1.60;;
21987;SDS011;11158;53.404;-1.510;2022-07-15T11:25:16;3.38;;;1.25;;
21987;SDS011;11158;53.404;-1.510;2022-07-15T11:27:42;1.70;;;1.08;;
21987;SDS011;11158;53.404;-1.510;2022-07-15T11:30:20;3.90;;;1.30;;
21987;SDS011;11158;53.404;-1.510;2022-07-15T11:32:53;2.90;;;1.15;;
21987;SDS011;11158;53.404;-1.510;2022-07-15T11:35:20;2.58;;;1.20;;
21987;SDS011;11158;53.404;-1.510;2022-07-15T11:37:45;3.08;;;1.15;;
21987;SDS011;11158;53.404;-1.510;2022-07-15T11:40:12;3.47;;;1.70;;
21987;SDS011;11158;53.404;-1.510;2022-07-15T11:43:00;2.70;;;1.42;;
21987;SDS011;11158;53.404;-1.510;2022-07-15T11:45:46;1.92;;;1.00;;
21987;SDS011;11158;53.404;-1.510;2022-07-15T11:48:12;2.17;;;1.13;;
21987;SDS011;11158;53.404;-1.510;2022-07-15T11:50:48;1.67;;;0.93;;
21987;SDS011;11158;53.404;-1.510;2022-07-15T11:53:22;1.88;;;1.00;;
21987;SDS011;11158;53.404;-1.510;2022-07-15T11:55:54;7.40;;;1.60;;
21987;SDS011;11158;53.404;-1.510;2022-07-15T11:58:28;2.40;;;1.00;;
21987;SDS011;11158;53.404;-1.510;2022-07-15T12:01:07;2.63;;;1.10;;
21987;SDS011;11158;53.404;-1.510;2022-07-15T12:03:37;2.08;;;0.95;;
21987;SDS011;11158;53.404;-1.510;2022-07-15T12:11:22;2.70;;;1.17;;
21987;SDS011;11158;53.404;-1.510;2022-07-15T12:13:49;12.85;;;1.90;;
21987;SDS011;11158;53.404;-1.510;2022-07-15T12:16:17;1.80;;;1.23;;
21987;SDS011;11158;53.404;-1.510;2022-07-15T12:18:45;3.30;;;1.30;;
21987;SDS011;11158;53.404;-1.510;2022-07-15T12:21:12;3.42;;;1.45;;
21987;SDS011;11158;53.404;-1.510;2022-07-15T12:23:39;4.13;;;1.20;;
21987;SDS011;11158;53.404;-1.510;2022-07-15T12:26:07;2.22;;;1.10;;
21987;SDS011;11158;53.404;-1.510;2022-07-15T12:28:35;3.08;;;1.35;;
21987;SDS011;11158;53.404;-1.510;2022-07-15T12:31:02;1.25;;;1.00;;
21987;SDS011;11158;53.404;-1.510;2022-07-15T12:33:32;4.53;;;1.00;;
21987;SDS011;11158;53.404;-1.510;2022-07-15T12:36:17;4.80;;;1.13;;
21987;SDS011;11158;53.404;-1.510;2022-07-15T12:39:01;2.75;;;1.20;;
21987;SDS011;11158;53.404;-1.510;2022-07-15T12:41:27;1.30;;;0.93;;
21987;SDS011;11158;53.404;-1.510;2022-07-15T12:43:54;2.50;;;1.20;;
21987;SDS011;11158;53.404;-1.510;2022-07-15T12:52:24;0.93;;;0.90;;
21987;SDS011;11158;53.404;-1.510;2022-07-15T12:54:56;2.10;;;1.10;;
21987;SDS011;11158;53.404;-1.510;2022-07-15T12:59:53;1.20;;;1.10;;
21987;SDS011;11158;53.404;-1.510;2022-07-15T13:02:21;1.67;;;1.10;;
21987;SDS011;11158;53.404;-1.510;2022-07-15T13:04:47;1.92;;;1.00;;
21987;SDS011;11158;53.404;-1.510;2022-07-15T13:07:14;1.73;;;1.27;;
21987;SDS011;11158;53.404;-1.510;2022-07-15T13:09:40;2.13;;;1.13;;
21987;SDS011;11158;53.404;-1.510;2022-07-15T13:12:07;0.95;;;0.90;;
21987;SDS011;11158;53.404;-1.510;2022-07-15T13:14:34;2.08;;;1.10;;
21987;SDS011;11158;53.404;-1.510;2022-07-15T13:17:00;1.65;;;1.10;;
21987;SDS011;11158;53.404;-1.510;2022-07-15T13:19:27;2.00;;;1.40;;
21987;SDS011;11158;53.404;-1.510;2022-07-15T13:21:52;4.45;;;1.63;;
21987;SDS011;11158;53.404;-1.510;2022-07-15T13:24:18;2.05;;;1.33;;
21987;SDS011;11158;53.404;-1.510;2022-07-15T13:26:44;1.92;;;1.50;;
21987;SDS011;11158;53.404;-1.510;2022-07-15T13:29:09;1.63;;;1.27;;
21987;SDS011;11158;53.404;-1.510;2022-07-15T13:31:35;1.58;;;1.30;;
21987;SDS011;11158;53.404;-1.510;2022-07-15T13:34:01;2.88;;;1.50;;
21987;SDS011;11158;53.404;-1.510;2022-07-15T13:36:26;2.00;;;1.27;;
21987;SDS011;11158;53.404;-1.510;2022-07-15T13:38:52;2.13;;;1.40;;
21987;SDS011;11158;53.404;-1.510;2022-07-15T13:41:20;1.70;;;1.48;;
21987;SDS011;11158;53.404;-1.510;2022-07-15T13:43:46;1.88;;;1.60;;
21987;SDS011;11158;53.404;-1.510;2022-07-15T13:46:12;1.45;;;1.17;;
21987;SDS011;11158;53.404;-1.510;2022-07-15T13:48:37;1.60;;;1.50;;
21987;SDS011;11158;53.404;-1.510;2022-07-15T13:51:03;3.85;;;2.00;;
21987;SDS011;11158;53.404;-1.510;2022-07-15T13:53:47;2.75;;;1.25;;
21987;SDS011;11158;53.404;-1.510;2022-07-15T13:56:13;2.22;;;1.30;;
21987;SDS011;11158;53.404;-1.510;2022-07-15T13:58:39;1.38;;;1.02;;
21987;SDS011;11158;53.404;-1.510;2022-07-15T14:01:04;1.20;;;1.10;;
21987;SDS011;11158;53.404;-1.510;2022-07-15T14:03:30;5.03;;;1.30;;
21987;SDS011;11158;53.404;-1.510;2022-07-15T14:05:59;3.90;;;1.20;;
21987;SDS011;11158;53.404;-1.510;2022-07-15T14:08:24;4.07;;;1.58;;
21987;SDS011;11158;53.404;-1.510;2022-07-15T14:10:50;5.53;;;1.55;;
21987;SDS011;11158;53.404;-1.510;2022-07-15T14:13:15;1.30;;;1.20;;
21987;SDS011;11158;53.404;-1.510;2022-07-15T14:15:41;3.83;;;1.33;;
21987;SDS011;11158;53.404;-1.510;2022-07-15T14:18:07;5.63;;;1.40;;
21987;SDS011;11158;53.404;-1.510;2022-07-15T14:20:32;2.95;;;1.50;;
21987;SDS011;11158;53.404;-1.510;2022-07-15T14:22:59;2.97;;;1.10;;
21987;SDS011;11158;53.404;-1.510;2022-07-15T14:25:25;1.60;;;1.23;;
21987;SDS011;11158;53.404;-1.510;2022-07-15T14:27:51;2.47;;;1.13;;
21987;SDS011;11158;53.404;-1.510;2022-07-15T14:30:17;4.97;;;1.45;;
21987;SDS011;11158;53.404;-1.510;2022-07-15T14:32:43;1.23;;;0.98;;
21987;SDS011;11158;53.404;-1.510;2022-07-15T14:35:09;1.45;;;1.00;;
21987;SDS011;11158;53.404;-1.510;2022-07-15T14:37:35;3.00;;;1.33;;
21987;SDS011;11158;53.404;-1.510;2022-07-15T14:40:02;1.80;;;1.45;;
21987;SDS011;11158;53.404;-1.510;2022-07-15T14:42:30;2.22;;;1.15;;
21987;SDS011;11158;53.404;-1.510;2022-07-15T14:44:56;6.53;;;1.35;;
21987;SDS011;11158;53.404;-1.510;2022-07-15T14:47:22;2.00;;;1.33;;
21987;SDS011;11158;53.404;-1.510;2022-07-15T14:49:48;2.25;;;1.30;;
21987;SDS011;11158;53.404;-1.510;2022-07-15T14:52:13;2.15;;;1.05;;
21987;SDS011;11158;53.404;-1.510;2022-07-15T14:54:39;1.52;;;1.08;;
21987;SDS011;11158;53.404;-1.510;2022-07-15T14:57:05;1.98;;;1.35;;
21987;SDS011;11158;53.404;-1.510;2022-07-15T14:59:32;2.25;;;1.50;;
21987;SDS011;11158;53.404;-1.510;2022-07-15T15:02:06;3.13;;;1.20;;
21987;SDS011;11158;53.404;-1.510;2022-07-15T15:04:33;2.88;;;1.50;;
21987;SDS011;11158;53.404;-1.510;2022-07-15T15:06:59;1.35;;;1.20;;
21987;SDS011;11158;53.404;-1.510;2022-07-15T15:09:25;1.10;;;1.00;;
21987;SDS011;11158;53.404;-1.510;2022-07-15T15:11:52;1.85;;;0.93;;
21987;SDS011;11158;53.404;-1.510;2022-07-15T15:14:17;1.27;;;1.02;;
21987;SDS011;11158;53.404;-1.510;2022-07-15T15:16:43;1.02;;;0.90;;
21987;SDS011;11158;53.404;-1.510;2022-07-15T15:19:09;1.95;;;1.20;;
21987;SDS011;11158;53.404;-1.510;2022-07-15T15:21:35;3.40;;;1.25;;